createdAt,value
2022-08-17T00:01:52.299Z,20.33
2022-08-17T00:04:21.709Z,19.55
2022-08-17T00:06:50.751Z,20.01
2022-08-17T00:09:19.550Z,19.85
2022-08-17T00:12:40.661Z,19.96
2022-08-17T00:14:38.656Z,19.79
2022-08-17T00:17:07.122Z,19.56
2022-08-17T00:19:35.359Z,19.31
2022-08-17T00:22:32.141Z,19.49
2022-08-17T00:24:54.631Z,19.39
2022-08-17T00:27:22.574Z,19.51
2022-08-17T00:29:51.978Z,18.57
2022-08-17T00:33:12.287Z,19.51
2022-08-17T00:35:11.191Z,19.45
2022-08-17T00:37:39.131Z,19.44
2022-08-17T00:40:09.121Z,19.46
2022-08-17T00:42:37.900Z,19.44
2022-08-17T00:45:08.720Z,19.20
2022-08-17T00:47:36.692Z,19.46
2022-08-17T00:50:06.165Z,19.36
2022-08-17T00:52:38.718Z,19.18
2022-08-17T00:55:09.293Z,19.40
2022-08-17T00:57:40.465Z,19.40
2022-08-17T01:00:15.479Z,19.43
2022-08-17T01:02:47.062Z,19.41
2022-08-17T01:05:25.413Z,19.35
2022-08-17T01:07:55.273Z,19.32
2022-08-17T01:10:57.538Z,19.28
2022-08-17T01:13:17.569Z,19.09
2022-08-17T01:15:50.750Z,18.99
2022-08-17T01:18:18.788Z,18.72
2022-08-17T01:20:49.734Z,18.49
2022-08-17T01:23:21.766Z,18.49
2022-08-17T01:25:52.167Z,19.33
2022-08-17T01:28:33.638Z,19.30
2022-08-17T01:31:09.935Z,19.19
2022-08-17T01:33:38.555Z,19.16
2022-08-17T01:36:08.364Z,19.26
2022-08-17T01:38:38.878Z,19.08
2022-08-17T01:41:11.261Z,19.19
2022-08-17T01:43:43.817Z,19.26
2022-08-17T01:46:17.160Z,19.23
2022-08-17T01:48:47.477Z,19.26
2022-08-17T01:51:16.659Z,19.06
2022-08-17T01:53:49.589Z,19.19
2022-08-17T01:56:20.980Z,19.14
2022-08-17T01:58:50.081Z,19.20
2022-08-17T02:01:19.159Z,19.29
2022-08-17T02:03:53.169Z,19.17
2022-08-17T02:06:29.444Z,19.09
2022-08-17T02:09:03.245Z,18.39
2022-08-17T02:11:32.887Z,19.02
2022-08-17T02:14:03.602Z,18.71
2022-08-17T02:16:37.130Z,18.93
2022-08-17T02:19:08.276Z,18.73
2022-08-17T02:21:37.049Z,18.42
2022-08-17T02:24:09.724Z,19.07
2022-08-17T02:26:37.893Z,19.05
2022-08-17T02:29:06.000Z,19.03
2022-08-17T02:31:35.665Z,18.53
2022-08-17T02:34:05.343Z,18.43
2022-08-17T02:36:35.008Z,19.17
2022-08-17T02:39:03.892Z,19.10
2022-08-17T02:41:33.331Z,19.02
2022-08-17T02:44:01.564Z,18.83
2022-08-17T02:46:30.507Z,18.75
2022-08-17T02:48:58.438Z,18.58
2022-08-17T02:51:26.814Z,18.59
2022-08-17T02:54:35.772Z,18.62
2022-08-17T02:56:44.289Z,18.50
2022-08-17T02:59:12.198Z,18.36
2022-08-17T03:01:40.472Z,18.14
2022-08-17T03:04:08.496Z,18.18
2022-08-17T03:06:37.446Z,18.44
2022-08-17T03:09:06.032Z,18.25
2022-08-17T03:11:34.012Z,18.18
2022-08-17T03:14:03.344Z,18.24
2022-08-17T03:16:31.292Z,17.23
2022-08-17T03:18:59.185Z,18.30
2022-08-17T03:21:27.216Z,18.38
2022-08-17T03:23:58.153Z,18.40
2022-08-17T03:26:28.765Z,17.90
2022-08-17T03:28:57.780Z,18.15
2022-08-17T03:31:27.073Z,18.16
2022-08-17T03:33:55.005Z,18.09
2022-08-17T03:36:22.953Z,18.24
2022-08-17T03:38:51.130Z,18.25
2022-08-17T03:41:19.093Z,18.39
2022-08-17T03:43:47.038Z,18.36
2022-08-17T03:46:35.170Z,17.58
2022-08-17T03:49:24.361Z,17.79
2022-08-17T03:52:18.385Z,18.21
2022-08-17T03:55:04.302Z,18.23
2022-08-17T03:57:33.183Z,18.09
2022-08-17T04:00:01.172Z,18.33
2022-08-17T04:02:32.203Z,18.37
2022-08-17T04:05:01.952Z,18.31
2022-08-17T04:07:31.775Z,18.27
2022-08-17T04:09:59.853Z,18.35
2022-08-17T04:12:30.844Z,18.50
2022-08-17T04:14:59.479Z,18.56
2022-08-17T04:17:30.068Z,18.72
2022-08-17T04:19:58.518Z,18.43
2022-08-17T04:22:33.121Z,18.84
2022-08-17T04:25:09.653Z,18.98
2022-08-17T04:27:37.841Z,19.17
2022-08-17T04:30:07.324Z,21.03
2022-08-17T04:33:03.604Z,22.09
2022-08-17T04:35:36.784Z,21.95
2022-08-17T04:38:06.728Z,22.87
2022-08-17T04:40:52.329Z,23.32
2022-08-17T04:43:21.873Z,23.75
2022-08-17T04:45:55.422Z,23.72
2022-08-17T04:48:34.799Z,24.23
2022-08-17T04:51:04.469Z,22.14
2022-08-17T04:53:33.906Z,23.71
2022-08-17T04:56:02.034Z,23.26
2022-08-17T04:58:29.953Z,24.34
2022-08-17T05:00:58.762Z,24.96
2022-08-17T05:03:26.929Z,24.85
2022-08-17T05:05:54.984Z,25.43
2022-08-17T05:08:23.091Z,24.70
2022-08-17T05:10:52.515Z,25.36
2022-08-17T05:13:22.289Z,25.40
2022-08-17T05:15:54.942Z,25.51
2022-08-17T05:18:24.605Z,24.81
2022-08-17T05:20:53.167Z,24.55
2022-08-17T05:23:22.685Z,24.82
2022-08-17T05:25:56.348Z,25.28
2022-08-17T05:28:28.004Z,26.15
2022-08-17T05:31:01.263Z,26.49
2022-08-17T05:33:31.963Z,26.56
2022-08-17T05:36:01.073Z,26.80
2022-08-17T05:38:31.240Z,26.84
2022-08-17T05:41:05.503Z,26.79
2022-08-17T05:43:35.577Z,26.57
2022-08-17T05:46:12.066Z,26.15
2022-08-17T05:48:42.788Z,26.54
2022-08-17T05:51:23.577Z,26.59
2022-08-17T05:54:10.598Z,27.67
2022-08-17T05:57:08.903Z,27.77
2022-08-17T05:59:50.104Z,28.21
2022-08-17T06:02:37.759Z,28.42
2022-08-17T06:05:20.953Z,28.49
2022-08-17T06:07:58.865Z,27.87
2022-08-17T06:10:33.553Z,27.27
2022-08-17T06:13:16.067Z,27.70
2022-08-17T06:15:56.432Z,26.67
2022-08-17T06:18:31.026Z,28.02
2022-08-17T06:21:02.619Z,27.94
2022-08-17T06:23:36.720Z,28.34
2022-08-17T06:26:12.614Z,28.21
2022-08-17T06:28:50.557Z,26.57
2022-08-17T06:31:27.448Z,27.62
2022-08-17T06:33:55.837Z,28.27
2022-08-17T06:36:40.194Z,29.07
2022-08-17T06:39:26.597Z,29.02
2022-08-17T06:42:06.565Z,28.64
2022-08-17T06:44:43.723Z,28.67
2022-08-17T06:47:28.880Z,28.80
2022-08-17T06:50:07.164Z,29.12
2022-08-17T06:52:46.281Z,29.04
2022-08-17T06:55:21.444Z,29.00
2022-08-17T06:57:53.647Z,29.42
2022-08-17T07:00:27.743Z,29.87
2022-08-17T07:03:00.372Z,30.37
2022-08-17T07:05:33.896Z,29.57
2022-08-17T07:08:09.313Z,29.15
2022-08-17T07:10:42.726Z,29.97
2022-08-17T07:13:30.676Z,29.64
2022-08-17T07:16:15.461Z,30.29
2022-08-17T07:18:44.278Z,29.98
2022-08-17T07:21:27.294Z,30.17
2022-08-17T07:24:29.737Z,31.20
2022-08-17T07:27:11.998Z,31.65
2022-08-17T07:29:44.016Z,31.47
2022-08-17T07:32:17.989Z,31.34
2022-08-17T07:35:15.181Z,32.00
2022-08-17T07:37:53.227Z,30.92
2022-08-17T07:40:33.454Z,31.15
2022-08-17T07:43:23.078Z,31.09
2022-08-17T07:46:33.727Z,32.32
2022-08-17T07:49:22.809Z,32.06
2022-08-17T07:52:47.522Z,31.79
2022-08-17T07:54:51.065Z,32.34
2022-08-17T07:57:33.760Z,32.03
2022-08-17T08:00:19.632Z,32.52
2022-08-17T08:03:17.553Z,32.99
2022-08-17T08:05:54.869Z,32.95
2022-08-17T08:08:28.229Z,32.78
2022-08-17T08:11:06.332Z,33.51
2022-08-17T08:13:35.309Z,33.71
2022-08-17T08:16:25.385Z,32.56
2022-08-17T08:18:57.790Z,33.24
2022-08-17T08:21:43.808Z,32.84
2022-08-17T08:24:41.423Z,33.84
2022-08-17T08:27:22.976Z,33.98
2022-08-17T08:29:58.072Z,33.96
2022-08-17T08:32:38.522Z,33.91
2022-08-17T08:35:10.357Z,34.11
2022-08-17T08:37:49.486Z,33.84
2022-08-17T08:40:38.359Z,34.59
2022-08-17T08:43:17.533Z,33.70
2022-08-17T08:45:56.614Z,34.32
2022-08-17T08:48:56.083Z,35.17
2022-08-17T08:51:37.483Z,35.64
2022-08-17T08:54:16.128Z,35.21
2022-08-17T08:57:19.873Z,35.35
2022-08-17T08:59:57.624Z,35.18
2022-08-17T09:02:47.917Z,34.13
2022-08-17T09:05:27.132Z,34.40
2022-08-17T09:08:04.672Z,35.17
2022-08-17T09:10:55.952Z,34.60
2022-08-17T09:13:34.568Z,35.53
2022-08-17T09:16:10.032Z,35.93
2022-08-17T09:19:00.123Z,36.12
2022-08-17T09:21:38.229Z,33.28
2022-08-17T09:24:24.184Z,33.98
2022-08-17T09:26:59.015Z,32.40
2022-08-17T09:29:30.584Z,33.40
2022-08-17T09:32:03.721Z,34.12
2022-08-17T09:34:43.498Z,34.89
2022-08-17T09:37:23.914Z,31.78
2022-08-17T09:40:10.732Z,32.22
2022-08-17T09:42:48.866Z,31.36
2022-08-17T09:45:28.027Z,30.43
2022-08-17T09:48:01.318Z,32.50
2022-08-17T09:51:03.183Z,34.03
2022-08-17T09:53:24.473Z,34.83
2022-08-17T09:56:18.546Z,35.82
2022-08-17T09:59:03.854Z,34.97
2022-08-17T10:01:39.903Z,35.03
2022-08-17T10:04:36.844Z,35.52
2022-08-17T10:07:11.314Z,35.37
2022-08-17T10:09:56.289Z,34.92
2022-08-17T10:12:35.723Z,35.06
2022-08-17T10:15:18.868Z,33.98
2022-08-17T10:18:10.170Z,34.08
2022-08-17T10:20:47.682Z,35.03
2022-08-17T10:23:40.261Z,35.00
2022-08-17T10:26:16.313Z,35.30
2022-08-17T10:28:51.073Z,35.16
2022-08-17T10:31:34.674Z,35.01
2022-08-17T10:34:29.805Z,34.60
2022-08-17T10:37:16.792Z,35.30
2022-08-17T10:39:52.478Z,35.03
2022-08-17T10:42:30.798Z,35.78
2022-08-17T10:45:07.251Z,34.68
2022-08-17T10:48:06.651Z,35.27
2022-08-17T10:50:49.499Z,35.47
2022-08-17T10:53:52.360Z,36.07
2022-08-17T10:56:43.176Z,35.83
2022-08-17T10:59:31.163Z,36.20
2022-08-17T11:02:13.990Z,36.33
2022-08-17T11:04:57.329Z,35.94
2022-08-17T11:07:43.867Z,35.20
2022-08-17T11:10:37.802Z,34.13
2022-08-17T11:13:11.107Z,33.01
2022-08-17T11:15:52.485Z,31.95
2022-08-17T11:18:55.971Z,31.41
2022-08-17T11:21:56.652Z,32.31
2022-08-17T11:24:34.488Z,33.15
2022-08-17T11:27:12.275Z,32.98
2022-08-17T11:29:56.874Z,35.37
2022-08-17T11:32:34.128Z,35.26
2022-08-17T11:35:29.693Z,35.59
2022-08-17T11:38:16.711Z,36.62
2022-08-17T11:41:06.709Z,36.72
2022-08-17T11:44:02.009Z,35.36
2022-08-17T11:46:57.342Z,34.13
2022-08-17T11:49:55.006Z,34.23
2022-08-17T11:52:42.276Z,33.98
2022-08-17T11:55:53.943Z,33.76
2022-08-17T11:58:38.405Z,33.12
2022-08-17T12:01:07.429Z,32.39
2022-08-17T12:03:57.027Z,31.46
2022-08-17T12:06:47.809Z,31.33
2022-08-17T12:09:20.004Z,31.18
2022-08-17T12:12:13.223Z,32.52
2022-08-17T12:17:40.093Z,34.24
2022-08-17T12:20:16.173Z,33.74
2022-08-17T12:22:55.019Z,33.06
2022-08-17T12:25:33.211Z,32.62
2022-08-17T12:28:06.120Z,31.45
2022-08-17T12:30:37.255Z,31.26
2022-08-17T12:33:12.441Z,31.14
2022-08-17T12:35:40.461Z,31.03
2022-08-17T12:38:33.174Z,31.67
2022-08-17T12:40:59.851Z,31.94
2022-08-17T12:43:32.918Z,31.83
2022-08-17T12:59:33.231Z,34.76
2022-08-17T13:02:02.170Z,34.65
2022-08-17T13:04:30.322Z,34.54
2022-08-17T13:07:00.153Z,33.88
2022-08-17T13:09:35.299Z,32.97
2022-08-17T13:12:05.087Z,33.20
2022-08-17T13:14:35.331Z,34.06
2022-08-17T13:17:09.917Z,33.40
2022-08-17T13:19:49.582Z,32.63
2022-08-17T13:22:20.026Z,31.41
2022-08-17T13:24:54.539Z,32.89
2022-08-17T13:27:25.148Z,32.23
2022-08-17T13:29:59.629Z,31.63
2022-08-17T13:32:44.067Z,31.43
2022-08-17T13:35:45.899Z,31.12
2022-08-17T13:38:40.768Z,31.39
2022-08-17T13:41:08.882Z,31.26
2022-08-17T13:43:45.774Z,30.69
2022-08-17T13:46:21.517Z,32.10
2022-08-17T13:48:59.711Z,32.17
2022-08-17T13:51:35.090Z,29.06
2022-08-17T13:54:20.130Z,32.08
2022-08-17T13:57:04.102Z,32.01
2022-08-17T13:59:54.348Z,31.27
2022-08-17T14:02:28.405Z,31.46
2022-08-17T14:04:57.354Z,30.73
2022-08-17T14:07:38.009Z,29.85
2022-08-17T14:10:11.945Z,31.28
2022-08-17T14:12:41.638Z,31.50
2022-08-17T14:15:11.147Z,31.55
2022-08-17T14:17:40.504Z,31.57
2022-08-17T14:20:12.200Z,31.34
2022-08-17T14:22:44.682Z,31.35
2022-08-17T14:25:15.236Z,31.38
2022-08-17T14:27:52.777Z,31.22
2022-08-17T14:30:24.239Z,31.08
2022-08-17T14:32:54.326Z,31.26
2022-08-17T14:35:24.451Z,30.71
2022-08-17T14:37:54.118Z,30.50
2022-08-17T14:40:24.694Z,29.07
2022-08-17T14:42:55.263Z,31.03
2022-08-17T14:45:30.487Z,31.16
2022-08-17T14:48:04.173Z,31.17
2022-08-17T14:50:35.774Z,31.12
2022-08-17T14:53:05.569Z,30.76
2022-08-17T14:55:33.713Z,31.20
2022-08-17T14:58:01.718Z,31.13
2022-08-17T15:00:29.684Z,31.12
2022-08-17T15:03:00.354Z,31.15
2022-08-17T15:05:32.392Z,31.10
2022-08-17T15:08:00.930Z,30.98
2022-08-17T15:10:31.093Z,31.01
2022-08-17T15:13:00.422Z,30.30
2022-08-17T15:15:29.528Z,31.01
2022-08-17T15:17:58.364Z,30.49
2022-08-17T15:20:31.030Z,30.13
2022-08-17T15:22:59.444Z,31.08
2022-08-17T15:25:30.408Z,28.60
2022-08-17T15:27:58.798Z,27.91
2022-08-17T15:30:27.696Z,30.83
2022-08-17T15:32:57.583Z,30.77
2022-08-17T15:35:29.180Z,30.31
2022-08-17T15:38:10.569Z,30.55
2022-08-17T15:40:42.097Z,30.47
2022-08-17T15:43:11.799Z,28.95
2022-08-17T15:45:40.499Z,30.55
2022-08-17T15:48:08.958Z,30.29
2022-08-17T15:50:37.986Z,30.63
2022-08-17T15:53:07.397Z,30.61
2022-08-17T15:55:36.698Z,30.58
2022-08-17T15:58:04.929Z,30.61
2022-08-17T16:00:49.356Z,30.41
2022-08-17T16:03:56.026Z,30.67
2022-08-17T16:06:09.763Z,30.53
2022-08-17T16:08:43.863Z,30.13
2022-08-17T16:11:12.415Z,30.45
2022-08-17T16:13:41.668Z,30.25
2022-08-17T16:16:16.178Z,29.59
2022-08-17T16:18:45.514Z,30.39
2022-08-17T16:21:29.718Z,30.33
2022-08-17T16:24:12.728Z,30.28
2022-08-17T16:26:43.262Z,30.24
2022-08-17T16:29:11.656Z,28.85
2022-08-17T16:31:41.875Z,30.13
2022-08-17T16:34:15.834Z,30.06
2022-08-17T16:36:55.796Z,29.94
2022-08-17T16:39:27.051Z,29.83
2022-08-17T16:41:55.925Z,27.92
2022-08-17T16:44:24.202Z,29.69
2022-08-17T16:46:52.154Z,29.65
2022-08-17T16:49:35.146Z,29.54
2022-08-17T16:52:08.165Z,27.77
2022-08-17T16:54:39.239Z,29.38
2022-08-17T16:57:07.251Z,29.32
2022-08-17T16:59:42.385Z,29.23
2022-08-17T17:02:15.585Z,28.92
2022-08-17T17:04:51.885Z,29.10
2022-08-17T17:07:45.301Z,29.04
2022-08-17T17:10:18.043Z,28.97
2022-08-17T17:13:01.334Z,28.35
2022-08-17T17:15:41.516Z,28.87
2022-08-17T17:18:14.824Z,28.39
2022-08-17T17:20:48.776Z,28.73
2022-08-17T17:23:29.052Z,28.32
2022-08-17T17:26:10.312Z,28.62
2022-08-17T17:28:46.390Z,28.04
2022-08-17T17:31:18.110Z,28.19
2022-08-17T17:33:50.702Z,28.02
2022-08-17T17:36:25.589Z,28.35
2022-08-17T17:38:56.645Z,28.25
2022-08-17T17:41:42.722Z,28.25
2022-08-17T17:44:17.880Z,27.68
2022-08-17T17:46:52.454Z,28.11
2022-08-17T17:49:20.535Z,28.06
2022-08-17T17:52:09.264Z,28.04
2022-08-17T17:54:52.277Z,27.98
2022-08-17T17:57:28.888Z,27.57
2022-08-17T18:00:08.192Z,27.22
2022-08-17T18:02:51.899Z,27.72
2022-08-17T18:05:48.532Z,27.65
2022-08-17T18:08:40.270Z,27.13
2022-08-17T18:11:24.198Z,27.33
2022-08-17T18:14:06.986Z,27.29
2022-08-17T18:16:35.908Z,27.22
2022-08-17T18:19:03.872Z,26.83
2022-08-17T18:21:38.846Z,27.18
2022-08-17T18:24:10.437Z,26.78
2022-08-17T18:26:46.197Z,26.83
2022-08-17T18:29:31.536Z,26.40
2022-08-17T18:32:22.782Z,26.91
2022-08-17T18:34:54.726Z,26.80
2022-08-17T18:37:42.630Z,26.77
2022-08-17T18:40:40.629Z,26.56
2022-08-17T18:43:14.754Z,26.70
2022-08-17T18:45:48.664Z,26.64
2022-08-17T18:48:27.566Z,25.29
2022-08-17T18:50:58.856Z,26.32
2022-08-17T18:53:41.030Z,25.86
2022-08-17T18:56:27.286Z,26.34
2022-08-17T18:59:03.667Z,26.00
2022-08-17T19:01:53.381Z,26.28
2022-08-17T19:04:34.596Z,25.22
2022-08-17T19:07:11.264Z,26.20
2022-08-17T19:09:43.849Z,26.18
2022-08-17T19:12:26.938Z,24.65
2022-08-17T19:14:57.916Z,26.12
2022-08-17T19:17:35.410Z,26.07
2022-08-17T19:20:09.989Z,26.03
2022-08-17T19:22:50.994Z,25.84
2022-08-17T19:25:24.009Z,25.27
2022-08-17T19:27:58.822Z,25.89
2022-08-17T19:30:27.885Z,25.48
2022-08-17T19:32:58.409Z,25.82
2022-08-17T19:35:30.991Z,25.72
2022-08-17T19:38:12.916Z,25.71
2022-08-17T19:40:54.131Z,25.67
2022-08-17T19:43:31.571Z,24.56
2022-08-17T19:46:07.957Z,25.19
2022-08-17T19:48:47.191Z,25.60
2022-08-17T19:51:20.279Z,25.30
2022-08-17T19:54:05.841Z,25.50
2022-08-17T19:56:42.925Z,25.46
2022-08-17T19:59:16.993Z,23.90
2022-08-17T20:01:50.155Z,25.19
2022-08-17T20:04:32.479Z,25.39
2022-08-17T20:07:05.196Z,25.35
2022-08-17T20:09:37.928Z,25.35
2022-08-17T20:12:11.674Z,25.36
2022-08-17T20:14:53.250Z,25.37
2022-08-17T20:17:23.295Z,25.33
2022-08-17T20:19:59.405Z,25.30
2022-08-17T20:22:49.643Z,25.02
2022-08-17T20:25:30.468Z,25.30
2022-08-17T20:28:06.738Z,25.29
2022-08-17T20:30:40.393Z,24.80
2022-08-17T20:33:23.344Z,24.98
2022-08-17T20:36:06.447Z,25.31
2022-08-17T20:38:43.865Z,25.26
2022-08-17T20:41:15.642Z,25.21
2022-08-17T20:43:51.018Z,25.17
2022-08-17T20:46:47.757Z,25.17
2022-08-17T20:49:24.436Z,24.78
2022-08-17T20:52:01.675Z,24.69
2022-08-17T20:54:49.926Z,25.00
2022-08-17T20:57:54.577Z,24.88
2022-08-17T21:00:44.847Z,24.83
2022-08-17T21:03:52.286Z,24.82
2022-08-17T21:06:23.969Z,24.57
2022-08-17T21:08:58.696Z,24.92
2022-08-17T21:12:04.620Z,24.84
2022-08-17T21:14:59.756Z,24.91
2022-08-17T21:17:51.393Z,24.80
2022-08-17T21:20:32.440Z,24.48
2022-08-17T21:23:22.823Z,24.52
2022-08-17T21:26:25.568Z,21.78
2022-08-17T21:29:30.210Z,23.94
2022-08-17T21:32:24.561Z,23.85
2022-08-17T21:35:30.146Z,23.84
2022-08-17T21:38:05.138Z,23.80
2022-08-17T21:40:35.347Z,23.72
2022-08-17T21:43:20.127Z,23.89
2022-08-17T21:45:58.698Z,23.91
2022-08-17T21:48:29.370Z,22.37
2022-08-17T21:51:01.022Z,23.92
2022-08-17T21:53:36.618Z,23.84
2022-08-17T21:56:05.697Z,23.76
2022-08-17T21:58:40.386Z,23.70
2022-08-17T22:01:23.848Z,23.35
2022-08-17T22:03:58.949Z,23.68
2022-08-17T22:06:30.627Z,23.62
2022-08-17T22:09:11.858Z,23.07
2022-08-17T22:11:52.688Z,23.52
2022-08-17T22:14:25.723Z,23.28
2022-08-17T22:17:14.746Z,23.40
2022-08-17T22:19:45.439Z,23.25
2022-08-17T22:22:26.472Z,23.24
2022-08-17T22:24:57.531Z,22.92
2022-08-17T22:28:01.506Z,22.75
2022-08-17T22:30:35.618Z,22.75
2022-08-17T22:33:31.503Z,22.81
2022-08-17T22:36:15.081Z,22.55
2022-08-17T22:38:43.877Z,22.97
2022-08-17T22:41:41.300Z,22.97
2022-08-17T22:44:25.541Z,22.92
2022-08-17T22:46:59.892Z,22.89
2022-08-17T22:49:32.136Z,22.80
2022-08-17T22:52:29.134Z,22.37
2022-08-17T22:55:26.025Z,22.58
2022-08-17T22:58:08.091Z,22.47
2022-08-17T23:00:39.797Z,21.77
2022-08-17T23:03:13.403Z,22.17
2022-08-17T23:05:45.181Z,22.33
2022-08-17T23:08:14.126Z,22.27
2022-08-17T23:10:43.237Z,22.14
2022-08-17T23:13:13.047Z,22.14
2022-08-17T23:15:42.175Z,22.30
2022-08-17T23:18:11.713Z,21.84
2022-08-17T23:20:41.942Z,22.15
2022-08-17T23:23:12.633Z,22.16
2022-08-17T23:25:44.598Z,22.27
2022-08-17T23:28:12.876Z,22.27
2022-08-17T23:30:45.139Z,22.36
2022-08-17T23:33:21.371Z,22.24
2022-08-17T23:35:49.640Z,22.11
2022-08-17T23:38:17.819Z,21.90
2022-08-17T23:40:46.151Z,21.41
2022-08-17T23:43:23.327Z,21.36
2022-08-17T23:45:53.666Z,21.33
2022-08-17T23:48:28.440Z,21.41
2022-08-17T23:51:05.988Z,21.31
2022-08-17T23:53:36.329Z,21.25
2022-08-17T23:56:10.006Z,21.18
2022-08-17T23:58:39.679Z,21.16
